sensor_id;sensor_type;location;lat;lon;timestamp;temperature;humidity
52103;DHT22;38101;53.126;6.878;2023-08-08T00:00:23;13.60;99.90
52103;DHT22;38101;53.126;6.878;2023-08-08T00:02:49;13.60;99.90
52103;DHT22;38101;53.126;6.878;2023-08-08T00:05:15;13.50;99.90
52103;DHT22;38101;53.126;6.878;2023-08-08T00:07:41;13.50;99.90
52103;DHT22;38101;53.126;6.878;2023-08-08T00:10:07;13.50;99.90
52103;DHT22;38101;53.126;6.878;2023-08-08T00:12:32;13.50;99.90
52103;DHT22;38101;53.126;6.878;2023-08-08T00:14:58;13.50;99.90
52103;DHT22;38101;53.126;6.878;2023-08-08T00:17:24;13.50;99.90
52103;DHT22;38101;53.126;6.878;2023-08-08T00:19:49;13.50;99.90
52103;DHT22;38101;53.126;6.878;2023-08-08T00:22:15;13.50;99.90
52103;DHT22;38101;53.126;6.878;2023-08-08T00:24:41;13.50;99.90
52103;DHT22;38101;53.126;6.878;2023-08-08T00:27:06;13.50;99.90
52103;DHT22;38101;53.126;6.878;2023-08-08T00:29:32;13.50;99.90
52103;DHT22;38101;53.126;6.878;2023-08-08T00:31:58;13.50;99.90
52103;DHT22;38101;53.126;6.878;2023-08-08T00:34:24;13.50;99.90
52103;DHT22;38101;53.126;6.878;2023-08-08T00:36:49;13.50;99.90
52103;DHT22;38101;53.126;6.878;2023-08-08T00:39:15;13.50;99.90
52103;DHT22;38101;53.126;6.878;2023-08-08T00:41:40;13.50;99.90
52103;DHT22;38101;53.126;6.878;2023-08-08T00:44:06;13.50;99.90
52103;DHT22;38101;53.126;6.878;2023-08-08T00:46:32;13.50;99.90
52103;DHT22;38101;53.126;6.878;2023-08-08T00:48:57;13.50;99.90
52103;DHT22;38101;53.126;6.878;2023-08-08T00:51:24;13.50;99.90
52103;DHT22;38101;53.126;6.878;2023-08-08T00:53:50;13.50;99.90
52103;DHT22;38101;53.126;6.878;2023-08-08T00:56:16;13.50;99.90
52103;DHT22;38101;53.126;6.878;2023-08-08T00:58:43;13.50;99.90
52103;DHT22;38101;53.126;6.878;2023-08-08T01:01:12;13.50;99.90
52103;DHT22;38101;53.126;6.878;2023-08-08T01:03:38;13.50;99.90
52103;DHT22;38101;53.126;6.878;2023-08-08T01:06:31;13.50;99.90
52103;DHT22;38101;53.126;6.878;2023-08-08T01:09:04;13.50;99.90
52103;DHT22;38101;53.126;6.878;2023-08-08T01:11:31;13.50;99.90
52103;DHT22;38101;53.126;6.878;2023-08-08T01:13:59;13.50;99.90
52103;DHT22;38101;53.126;6.878;2023-08-08T01:16:26;13.50;99.90
52103;DHT22;38101;53.126;6.878;2023-08-08T01:18:52;13.50;99.90
52103;DHT22;38101;53.126;6.878;2023-08-08T01:21:18;13.40;99.90
52103;DHT22;38101;53.126;6.878;2023-08-08T01:23:52;13.40;99.90
52103;DHT22;38101;53.126;6.878;2023-08-08T01:26:18;13.40;99.90
52103;DHT22;38101;53.126;6.878;2023-08-08T01:28:46;13.40;99.90
52103;DHT22;38101;53.126;6.878;2023-08-08T01:31:11;13.30;99.90
52103;DHT22;38101;53.126;6.878;2023-08-08T01:33:37;13.30;99.90
52103;DHT22;38101;53.126;6.878;2023-08-08T01:36:10;13.30;99.90
52103;DHT22;38101;53.126;6.878;2023-08-08T01:38:44;13.20;99.90
52103;DHT22;38101;53.126;6.878;2023-08-08T01:41:12;13.20;99.90
52103;DHT22;38101;53.126;6.878;2023-08-08T01:43:39;13.20;99.90
52103;DHT22;38101;53.126;6.878;2023-08-08T01:46:07;13.10;99.90
52103;DHT22;38101;53.126;6.878;2023-08-08T01:48:32;13.10;99.90
52103;DHT22;38101;53.126;6.878;2023-08-08T01:50:58;13.10;99.90
52103;DHT22;38101;53.126;6.878;2023-08-08T01:53:24;13.00;99.90
52103;DHT22;38101;53.126;6.878;2023-08-08T01:55:50;13.00;99.90
52103;DHT22;38101;53.126;6.878;2023-08-08T01:58:15;13.00;99.90
52103;DHT22;38101;53.126;6.878;2023-08-08T02:00:41;13.00;99.90
52103;DHT22;38101;53.126;6.878;2023-08-08T02:03:09;13.00;99.90
52103;DHT22;38101;53.126;6.878;2023-08-08T02:05:35;13.00;99.90
52103;DHT22;38101;53.126;6.878;2023-08-08T02:08:00;13.00;99.90
52103;DHT22;38101;53.126;6.878;2023-08-08T02:10:26;13.00;99.90
52103;DHT22;38101;53.126;6.878;2023-08-08T02:12:52;13.00;99.90
52103;DHT22;38101;53.126;6.878;2023-08-08T02:15:17;13.00;99.90
52103;DHT22;38101;53.126;6.878;2023-08-08T02:17:45;13.00;99.90
52103;DHT22;38101;53.126;6.878;2023-08-08T02:20:11;13.00;99.90
52103;DHT22;38101;53.126;6.878;2023-08-08T02:22:37;13.10;99.90
52103;DHT22;38101;53.126;6.878;2023-08-08T02:25:03;13.10;99.90
52103;DHT22;38101;53.126;6.878;2023-08-08T02:27:29;13.10;99.90
52103;DHT22;38101;53.126;6.878;2023-08-08T02:29:55;13.10;99.90
52103;DHT22;38101;53.126;6.878;2023-08-08T02:32:23;13.20;99.90
52103;DHT22;38101;53.126;6.878;2023-08-08T02:34:48;13.20;99.90
52103;DHT22;38101;53.126;6.878;2023-08-08T02:37:14;13.20;99.90
52103;DHT22;38101;53.126;6.878;2023-08-08T02:39:42;13.20;99.90
52103;DHT22;38101;53.126;6.878;2023-08-08T02:42:08;13.30;99.90
52103;DHT22;38101;53.126;6.878;2023-08-08T02:44:33;13.30;99.90
52103;DHT22;38101;53.126;6.878;2023-08-08T02:46:59;13.30;99.90
52103;DHT22;38101;53.126;6.878;2023-08-08T02:49:25;13.30;99.90
52103;DHT22;38101;53.126;6.878;2023-08-08T02:51:50;13.40;99.90
52103;DHT22;38101;53.126;6.878;2023-08-08T02:54:16;13.40;99.90
52103;DHT22;38101;53.126;6.878;2023-08-08T02:56:41;13.40;99.90
52103;DHT22;38101;53.126;6.878;2023-08-08T02:59:07;13.40;99.90
52103;DHT22;38101;53.126;6.878;2023-08-08T03:01:33;13.40;99.90
52103;DHT22;38101;53.126;6.878;2023-08-08T03:04:03;13.40;99.90
52103;DHT22;38101;53.126;6.878;2023-08-08T03:06:28;13.40;99.90
52103;DHT22;38101;53.126;6.878;2023-08-08T03:08:54;13.40;99.90
52103;DHT22;38101;53.126;6.878;2023-08-08T03:11:20;13.40;99.90
52103;DHT22;38101;53.126;6.878;2023-08-08T03:13:45;13.40;99.90
52103;DHT22;38101;53.126;6.878;2023-08-08T03:16:11;13.40;99.90
52103;DHT22;38101;53.126;6.878;2023-08-08T03:18:37;13.40;99.90
52103;DHT22;38101;53.126;6.878;2023-08-08T03:21:02;13.40;99.90
52103;DHT22;38101;53.126;6.878;2023-08-08T03:23:28;13.40;99.90
52103;DHT22;38101;53.126;6.878;2023-08-08T03:25:54;13.40;99.90
52103;DHT22;38101;53.126;6.878;2023-08-08T03:28:19;13.40;99.90
52103;DHT22;38101;53.126;6.878;2023-08-08T03:30:45;13.40;99.90
52103;DHT22;38101;53.126;6.878;2023-08-08T03:33:11;13.40;99.90
52103;DHT22;38101;53.126;6.878;2023-08-08T03:35:36;13.40;99.90
52103;DHT22;38101;53.126;6.878;2023-08-08T03:38:02;13.40;99.90
52103;DHT22;38101;53.126;6.878;2023-08-08T03:40:28;13.30;99.90
52103;DHT22;38101;53.126;6.878;2023-08-08T03:42:54;13.40;99.90
52103;DHT22;38101;53.126;6.878;2023-08-08T03:45:19;13.30;99.90
52103;DHT22;38101;53.126;6.878;2023-08-08T03:47:45;13.30;99.90
52103;DHT22;38101;53.126;6.878;2023-08-08T03:50:11;13.30;99.90
52103;DHT22;38101;53.126;6.878;2023-08-08T03:52:37;13.30;99.90
52103;DHT22;38101;53.126;6.878;2023-08-08T03:55:04;13.30;99.90
52103;DHT22;38101;53.126;6.878;2023-08-08T03:57:30;13.30;99.90
52103;DHT22;38101;53.126;6.878;2023-08-08T03:59:55;13.30;99.90
52103;DHT22;38101;53.126;6.878;2023-08-08T04:02:21;13.30;99.90
52103;DHT22;38101;53.126;6.878;2023-08-08T04:04:47;13.30;99.90
52103;DHT22;38101;53.126;6.878;2023-08-08T04:07:13;13.20;99.90
52103;DHT22;38101;53.126;6.878;2023-08-08T04:09:38;13.20;99.90
52103;DHT22;38101;53.126;6.878;2023-08-08T04:12:04;13.20;99.90
52103;DHT22;38101;53.126;6.878;2023-08-08T04:14:30;13.20;99.90
52103;DHT22;38101;53.126;6.878;2023-08-08T04:16:55;13.10;99.90
52103;DHT22;38101;53.126;6.878;2023-08-08T04:19:21;13.10;99.90
52103;DHT22;38101;53.126;6.878;2023-08-08T04:21:47;13.20;99.90
52103;DHT22;38101;53.126;6.878;2023-08-08T04:24:12;13.10;99.90
52103;DHT22;38101;53.126;6.878;2023-08-08T04:26:38;13.10;99.90
52103;DHT22;38101;53.126;6.878;2023-08-08T04:29:05;13.10;99.90
52103;DHT22;38101;53.126;6.878;2023-08-08T04:31:31;13.10;99.90
52103;DHT22;38101;53.126;6.878;2023-08-08T04:33:56;13.20;99.90
52103;DHT22;38101;53.126;6.878;2023-08-08T04:36:28;13.20;99.90
52103;DHT22;38101;53.126;6.878;2023-08-08T04:38:54;13.10;99.90
52103;DHT22;38101;53.126;6.878;2023-08-08T04:41:20;13.20;99.90
52103;DHT22;38101;53.126;6.878;2023-08-08T04:43:46;13.20;99.90
52103;DHT22;38101;53.126;6.878;2023-08-08T04:46:11;13.20;99.90
52103;DHT22;38101;53.126;6.878;2023-08-08T04:48:38;13.20;99.90
52103;DHT22;38101;53.126;6.878;2023-08-08T04:51:08;13.20;99.90
52103;DHT22;38101;53.126;6.878;2023-08-08T04:53:34;13.30;99.90
52103;DHT22;38101;53.126;6.878;2023-08-08T04:56:00;13.40;99.90
52103;DHT22;38101;53.126;6.878;2023-08-08T04:58:25;13.40;99.90
52103;DHT22;38101;53.126;6.878;2023-08-08T05:00:51;13.40;99.90
52103;DHT22;38101;53.126;6.878;2023-08-08T05:03:17;13.40;99.90
52103;DHT22;38101;53.126;6.878;2023-08-08T05:05:43;13.50;99.90
52103;DHT22;38101;53.126;6.878;2023-08-08T05:08:16;13.50;99.90
52103;DHT22;38101;53.126;6.878;2023-08-08T05:10:42;13.60;99.90
52103;DHT22;38101;53.126;6.878;2023-08-08T05:13:08;13.60;99.90
52103;DHT22;38101;53.126;6.878;2023-08-08T05:15:34;13.60;99.90
52103;DHT22;38101;53.126;6.878;2023-08-08T05:18:00;13.60;99.90
52103;DHT22;38101;53.126;6.878;2023-08-08T05:20:26;13.60;99.90
52103;DHT22;38101;53.126;6.878;2023-08-08T05:22:51;13.70;99.90
52103;DHT22;38101;53.126;6.878;2023-08-08T05:25:17;13.70;99.90
52103;DHT22;38101;53.126;6.878;2023-08-08T05:27:43;13.70;99.90
52103;DHT22;38101;53.126;6.878;2023-08-08T05:30:09;13.70;99.90
52103;DHT22;38101;53.126;6.878;2023-08-08T05:32:35;13.70;99.90
52103;DHT22;38101;53.126;6.878;2023-08-08T05:35:00;13.70;99.90
52103;DHT22;38101;53.126;6.878;2023-08-08T05:37:29;13.70;99.90
52103;DHT22;38101;53.126;6.878;2023-08-08T05:39:54;13.70;99.90
52103;DHT22;38101;53.126;6.878;2023-08-08T05:42:20;13.70;99.90
52103;DHT22;38101;53.126;6.878;2023-08-08T05:44:46;13.70;99.90
52103;DHT22;38101;53.126;6.878;2023-08-08T05:47:11;13.70;99.90
52103;DHT22;38101;53.126;6.878;2023-08-08T05:49:38;13.70;99.90
52103;DHT22;38101;53.126;6.878;2023-08-08T05:52:05;13.70;99.90
52103;DHT22;38101;53.126;6.878;2023-08-08T05:54:30;13.80;99.90
52103;DHT22;38101;53.126;6.878;2023-08-08T05:56:56;13.70;99.90
52103;DHT22;38101;53.126;6.878;2023-08-08T05:59:22;13.80;99.90
52103;DHT22;38101;53.126;6.878;2023-08-08T06:01:47;13.80;99.90
52103;DHT22;38101;53.126;6.878;2023-08-08T06:04:13;13.90;99.90
52103;DHT22;38101;53.126;6.878;2023-08-08T06:06:39;13.90;99.90
52103;DHT22;38101;53.126;6.878;2023-08-08T06:09:05;13.90;99.90
52103;DHT22;38101;53.126;6.878;2023-08-08T06:11:30;13.90;99.90
52103;DHT22;38101;53.126;6.878;2023-08-08T06:13:56;14.00;99.90
52103;DHT22;38101;53.126;6.878;2023-08-08T06:16:22;14.00;99.90
52103;DHT22;38101;53.126;6.878;2023-08-08T06:18:48;14.10;99.90
52103;DHT22;38101;53.126;6.878;2023-08-08T06:21:14;14.20;99.90
52103;DHT22;38101;53.126;6.878;2023-08-08T06:23:40;14.20;99.90
52103;DHT22;38101;53.126;6.878;2023-08-08T06:26:06;14.20;99.90
52103;DHT22;38101;53.126;6.878;2023-08-08T06:28:32;14.30;99.90
52103;DHT22;38101;53.126;6.878;2023-08-08T06:30:58;14.30;99.90
52103;DHT22;38101;53.126;6.878;2023-08-08T06:33:24;14.40;99.90
52103;DHT22;38101;53.126;6.878;2023-08-08T06:35:50;14.50;99.90
52103;DHT22;38101;53.126;6.878;2023-08-08T06:38:15;14.60;99.90
52103;DHT22;38101;53.126;6.878;2023-08-08T06:40:41;14.70;99.90
52103;DHT22;38101;53.126;6.878;2023-08-08T06:43:07;14.70;99.90
52103;DHT22;38101;53.126;6.878;2023-08-08T06:45:32;14.80;99.90
52103;DHT22;38101;53.126;6.878;2023-08-08T06:47:58;15.00;99.90
52103;DHT22;38101;53.126;6.878;2023-08-08T06:50:24;15.10;99.90
52103;DHT22;38101;53.126;6.878;2023-08-08T06:52:50;15.10;99.90
52103;DHT22;38101;53.126;6.878;2023-08-08T06:55:16;15.10;99.90
52103;DHT22;38101;53.126;6.878;2023-08-08T06:57:41;15.20;99.90
52103;DHT22;38101;53.126;6.878;2023-08-08T07:00:07;15.30;99.90
52103;DHT22;38101;53.126;6.878;2023-08-08T07:02:34;15.30;99.90
52103;DHT22;38101;53.126;6.878;2023-08-08T07:05:00;15.40;99.90
52103;DHT22;38101;53.126;6.878;2023-08-08T07:07:26;15.50;99.90
52103;DHT22;38101;53.126;6.878;2023-08-08T07:09:52;15.50;99.90
52103;DHT22;38101;53.126;6.878;2023-08-08T07:12:17;15.60;99.90
52103;DHT22;38101;53.126;6.878;2023-08-08T07:14:43;15.70;99.90
52103;DHT22;38101;53.126;6.878;2023-08-08T07:17:09;15.70;99.90
52103;DHT22;38101;53.126;6.878;2023-08-08T07:19:36;15.70;99.90
52103;DHT22;38101;53.126;6.878;2023-08-08T07:22:02;15.70;99.90
52103;DHT22;38101;53.126;6.878;2023-08-08T07:24:27;15.80;99.90
52103;DHT22;38101;53.126;6.878;2023-08-08T07:26:59;15.90;99.90
52103;DHT22;38101;53.126;6.878;2023-08-08T07:29:25;16.00;99.90
52103;DHT22;38101;53.126;6.878;2023-08-08T07:31:54;16.00;99.90
52103;DHT22;38101;53.126;6.878;2023-08-08T07:34:20;16.20;99.90
52103;DHT22;38101;53.126;6.878;2023-08-08T07:36:46;16.40;99.90
52103;DHT22;38101;53.126;6.878;2023-08-08T07:39:12;16.40;99.90
52103;DHT22;38101;53.126;6.878;2023-08-08T07:41:38;16.30;99.90
52103;DHT22;38101;53.126;6.878;2023-08-08T07:44:05;16.40;99.90
52103;DHT22;38101;53.126;6.878;2023-08-08T07:46:31;16.50;99.90
52103;DHT22;38101;53.126;6.878;2023-08-08T07:48:57;16.50;99.90
52103;DHT22;38101;53.126;6.878;2023-08-08T07:51:25;16.60;99.90
52103;DHT22;38101;53.126;6.878;2023-08-08T07:53:50;16.60;99.90
52103;DHT22;38101;53.126;6.878;2023-08-08T07:56:16;16.70;99.90
52103;DHT22;38101;53.126;6.878;2023-08-08T07:58:42;16.80;99.90
52103;DHT22;38101;53.126;6.878;2023-08-08T08:01:08;16.80;99.90
52103;DHT22;38101;53.126;6.878;2023-08-08T08:03:33;16.80;99.90
52103;DHT22;38101;53.126;6.878;2023-08-08T08:05:59;16.90;99.90
52103;DHT22;38101;53.126;6.878;2023-08-08T08:08:25;16.90;99.90
52103;DHT22;38101;53.126;6.878;2023-08-08T08:10:51;16.70;99.90
52103;DHT22;38101;53.126;6.878;2023-08-08T08:13:17;16.90;99.90
52103;DHT22;38101;53.126;6.878;2023-08-08T08:15:43;16.90;99.90
52103;DHT22;38101;53.126;6.878;2023-08-08T08:18:09;16.90;99.90
52103;DHT22;38101;53.126;6.878;2023-08-08T08:20:34;16.90;99.90
52103;DHT22;38101;53.126;6.878;2023-08-08T08:23:00;16.90;99.90
52103;DHT22;38101;53.126;6.878;2023-08-08T08:25:26;17.20;99.90
52103;DHT22;38101;53.126;6.878;2023-08-08T08:27:51;17.30;99.90
52103;DHT22;38101;53.126;6.878;2023-08-08T08:30:17;17.30;99.90
52103;DHT22;38101;53.126;6.878;2023-08-08T08:32:44;17.40;99.90
52103;DHT22;38101;53.126;6.878;2023-08-08T08:35:09;17.40;99.90
52103;DHT22;38101;53.126;6.878;2023-08-08T08:37:37;17.60;99.90
52103;DHT22;38101;53.126;6.878;2023-08-08T08:40:03;17.60;99.90
52103;DHT22;38101;53.126;6.878;2023-08-08T08:42:31;17.50;99.90
52103;DHT22;38101;53.126;6.878;2023-08-08T08:44:58;17.60;99.90
52103;DHT22;38101;53.126;6.878;2023-08-08T08:47:25;17.50;99.90
52103;DHT22;38101;53.126;6.878;2023-08-08T08:49:55;17.50;99.90
52103;DHT22;38101;53.126;6.878;2023-08-08T08:52:22;17.40;99.90
52103;DHT22;38101;53.126;6.878;2023-08-08T08:54:48;17.30;99.90
52103;DHT22;38101;53.126;6.878;2023-08-08T08:57:14;17.40;99.90
52103;DHT22;38101;53.126;6.878;2023-08-08T08:59:40;17.50;99.90
52103;DHT22;38101;53.126;6.878;2023-08-08T09:02:07;17.60;99.90
52103;DHT22;38101;53.126;6.878;2023-08-08T09:04:34;17.80;99.90
52103;DHT22;38101;53.126;6.878;2023-08-08T09:07:00;17.80;99.90
52103;DHT22;38101;53.126;6.878;2023-08-08T09:09:26;17.90;99.90
52103;DHT22;38101;53.126;6.878;2023-08-08T09:11:54;17.80;99.90
52103;DHT22;38101;53.126;6.878;2023-08-08T09:14:25;17.60;99.90
52103;DHT22;38101;53.126;6.878;2023-08-08T09:16:52;17.70;99.90
52103;DHT22;38101;53.126;6.878;2023-08-08T09:19:20;17.80;99.90
52103;DHT22;38101;53.126;6.878;2023-08-08T09:21:47;17.80;99.90
52103;DHT22;38101;53.126;6.878;2023-08-08T09:24:12;17.90;99.90
52103;DHT22;38101;53.126;6.878;2023-08-08T09:26:42;17.90;99.90
52103;DHT22;38101;53.126;6.878;2023-08-08T09:29:09;17.90;99.90
52103;DHT22;38101;53.126;6.878;2023-08-08T09:31:35;18.00;99.90
52103;DHT22;38101;53.126;6.878;2023-08-08T09:34:03;18.00;99.90
52103;DHT22;38101;53.126;6.878;2023-08-08T09:36:29;17.90;99.90
52103;DHT22;38101;53.126;6.878;2023-08-08T09:38:56;17.80;99.90
52103;DHT22;38101;53.126;6.878;2023-08-08T09:41:23;17.70;99.90
52103;DHT22;38101;53.126;6.878;2023-08-08T09:43:50;17.50;99.90
52103;DHT22;38101;53.126;6.878;2023-08-08T09:46:16;17.40;99.90
52103;DHT22;38101;53.126;6.878;2023-08-08T09:48:42;17.40;99.90
52103;DHT22;38101;53.126;6.878;2023-08-08T09:51:08;17.30;99.90
52103;DHT22;38101;53.126;6.878;2023-08-08T09:53:34;17.20;99.90
52103;DHT22;38101;53.126;6.878;2023-08-08T09:56:03;17.20;99.90
52103;DHT22;38101;53.126;6.878;2023-08-08T09:58:29;17.30;99.90
52103;DHT22;38101;53.126;6.878;2023-08-08T10:00:55;17.40;99.90
52103;DHT22;38101;53.126;6.878;2023-08-08T10:03:21;17.40;99.90
52103;DHT22;38101;53.126;6.878;2023-08-08T10:05:47;17.50;99.90
52103;DHT22;38101;53.126;6.878;2023-08-08T10:08:17;17.60;99.90
52103;DHT22;38101;53.126;6.878;2023-08-08T10:10:45;17.80;99.90
52103;DHT22;38101;53.126;6.878;2023-08-08T10:13:22;17.90;99.90
52103;DHT22;38101;53.126;6.878;2023-08-08T10:15:49;17.70;99.90
52103;DHT22;38101;53.126;6.878;2023-08-08T10:18:15;17.50;99.90
52103;DHT22;38101;53.126;6.878;2023-08-08T10:20:47;17.50;99.90
52103;DHT22;38101;53.126;6.878;2023-08-08T10:23:17;17.80;99.90
52103;DHT22;38101;53.126;6.878;2023-08-08T10:25:48;18.00;99.90
52103;DHT22;38101;53.126;6.878;2023-08-08T10:28:17;17.90;99.90
52103;DHT22;38101;53.126;6.878;2023-08-08T10:30:56;17.80;99.90
52103;DHT22;38101;53.126;6.878;2023-08-08T10:33:42;17.70;99.90
52103;DHT22;38101;53.126;6.878;2023-08-08T10:36:08;17.50;99.90
52103;DHT22;38101;53.126;6.878;2023-08-08T10:38:40;17.10;99.90
52103;DHT22;38101;53.126;6.878;2023-08-08T10:41:10;16.90;99.90
52103;DHT22;38101;53.126;6.878;2023-08-08T10:43:36;16.50;99.90
52103;DHT22;38101;53.126;6.878;2023-08-08T10:46:03;16.50;99.90
52103;DHT22;38101;53.126;6.878;2023-08-08T10:48:29;16.50;99.90
52103;DHT22;38101;53.126;6.878;2023-08-08T10:50:57;16.60;99.90
52103;DHT22;38101;53.126;6.878;2023-08-08T10:53:30;16.70;99.90
52103;DHT22;38101;53.126;6.878;2023-08-08T10:56:03;17.00;99.90
52103;DHT22;38101;53.126;6.878;2023-08-08T10:58:42;17.20;99.90
52103;DHT22;38101;53.126;6.878;2023-08-08T11:01:12;17.40;99.90
52103;DHT22;38101;53.126;6.878;2023-08-08T11:03:39;17.20;99.90
52103;DHT22;38101;53.126;6.878;2023-08-08T11:06:07;17.30;99.90
52103;DHT22;38101;53.126;6.878;2023-08-08T11:08:33;17.60;99.90
52103;DHT22;38101;53.126;6.878;2023-08-08T11:11:00;18.10;99.90
52103;DHT22;38101;53.126;6.878;2023-08-08T11:13:26;18.00;99.90
52103;DHT22;38101;53.126;6.878;2023-08-08T11:15:52;18.00;99.90
52103;DHT22;38101;53.126;6.878;2023-08-08T11:18:18;17.90;99.90
52103;DHT22;38101;53.126;6.878;2023-08-08T11:20:44;17.90;99.90
52103;DHT22;38101;53.126;6.878;2023-08-08T11:23:10;18.00;99.90
52103;DHT22;38101;53.126;6.878;2023-08-08T11:25:37;18.20;99.90
52103;DHT22;38101;53.126;6.878;2023-08-08T11:28:05;18.30;99.90
52103;DHT22;38101;53.126;6.878;2023-08-08T11:30:34;18.50;99.90
52103;DHT22;38101;53.126;6.878;2023-08-08T11:33:00;18.60;99.90
52103;DHT22;38101;53.126;6.878;2023-08-08T11:35:26;18.70;99.90
52103;DHT22;38101;53.126;6.878;2023-08-08T11:37:54;18.60;99.90
52103;DHT22;38101;53.126;6.878;2023-08-08T11:40:20;18.40;99.90
52103;DHT22;38101;53.126;6.878;2023-08-08T11:42:47;18.40;99.90
52103;DHT22;38101;53.126;6.878;2023-08-08T11:45:16;18.30;99.90
52103;DHT22;38101;53.126;6.878;2023-08-08T11:47:42;18.20;99.90
52103;DHT22;38101;53.126;6.878;2023-08-08T11:50:09;18.20;99.90
52103;DHT22;38101;53.126;6.878;2023-08-08T11:52:40;18.20;99.90
52103;DHT22;38101;53.126;6.878;2023-08-08T11:55:08;18.30;99.90
52103;DHT22;38101;53.126;6.878;2023-08-08T11:57:36;18.50;99.90
52103;DHT22;38101;53.126;6.878;2023-08-08T12:00:10;18.90;99.90
52103;DHT22;38101;53.126;6.878;2023-08-08T12:02:41;19.20;99.90
52103;DHT22;38101;53.126;6.878;2023-08-08T12:05:12;19.30;99.90
52103;DHT22;38101;53.126;6.878;2023-08-08T12:07:40;19.30;99.90
52103;DHT22;38101;53.126;6.878;2023-08-08T12:10:14;19.50;99.90
52103;DHT22;38101;53.126;6.878;2023-08-08T12:12:42;19.70;99.90
52103;DHT22;38101;53.126;6.878;2023-08-08T12:15:08;19.80;99.90
52103;DHT22;38101;53.126;6.878;2023-08-08T12:17:35;20.00;99.90
52103;DHT22;38101;53.126;6.878;2023-08-08T12:20:04;20.00;99.90
52103;DHT22;38101;53.126;6.878;2023-08-08T12:22:31;19.70;99.90
52103;DHT22;38101;53.126;6.878;2023-08-08T12:24:57;19.90;99.90
52103;DHT22;38101;53.126;6.878;2023-08-08T12:27:23;19.90;99.90
52103;DHT22;38101;53.126;6.878;2023-08-08T12:29:48;19.80;99.90
52103;DHT22;38101;53.126;6.878;2023-08-08T12:32:14;19.70;99.90
52103;DHT22;38101;53.126;6.878;2023-08-08T12:34:40;19.90;99.90
52103;DHT22;38101;53.126;6.878;2023-08-08T12:37:06;19.80;99.90
52103;DHT22;38101;53.126;6.878;2023-08-08T12:39:32;19.70;99.80
52103;DHT22;38101;53.126;6.878;2023-08-08T12:41:57;19.60;99.90
52103;DHT22;38101;53.126;6.878;2023-08-08T12:44:23;19.40;99.90
52103;DHT22;38101;53.126;6.878;2023-08-08T12:46:49;19.10;99.90
52103;DHT22;38101;53.126;6.878;2023-08-08T12:49:14;18.90;99.90
52103;DHT22;38101;53.126;6.878;2023-08-08T12:51:40;18.80;99.90
52103;DHT22;38101;53.126;6.878;2023-08-08T12:54:06;18.80;99.90
52103;DHT22;38101;53.126;6.878;2023-08-08T12:56:32;18.60;99.90
52103;DHT22;38101;53.126;6.878;2023-08-08T12:58:57;18.60;99.90
52103;DHT22;38101;53.126;6.878;2023-08-08T13:01:23;18.60;99.90
52103;DHT22;38101;53.126;6.878;2023-08-08T13:03:50;18.60;99.90
52103;DHT22;38101;53.126;6.878;2023-08-08T13:06:16;18.70;99.90
52103;DHT22;38101;53.126;6.878;2023-08-08T13:08:42;18.90;99.90
52103;DHT22;38101;53.126;6.878;2023-08-08T13:11:08;19.40;99.90
52103;DHT22;38101;53.126;6.878;2023-08-08T13:13:34;19.60;99.90
52103;DHT22;38101;53.126;6.878;2023-08-08T13:15:59;19.40;99.90
52103;DHT22;38101;53.126;6.878;2023-08-08T13:18:25;19.20;99.90
52103;DHT22;38101;53.126;6.878;2023-08-08T13:20:51;19.20;99.90
52103;DHT22;38101;53.126;6.878;2023-08-08T13:23:17;19.00;99.90
52103;DHT22;38101;53.126;6.878;2023-08-08T13:25:43;19.00;99.90
52103;DHT22;38101;53.126;6.878;2023-08-08T13:28:09;19.10;99.90
52103;DHT22;38101;53.126;6.878;2023-08-08T13:30:35;19.30;99.90
52103;DHT22;38101;53.126;6.878;2023-08-08T13:33:01;19.60;99.90
52103;DHT22;38101;53.126;6.878;2023-08-08T13:35:27;19.70;99.90
52103;DHT22;38101;53.126;6.878;2023-08-08T13:37:52;19.80;99.90
52103;DHT22;38101;53.126;6.878;2023-08-08T13:40:20;20.00;99.90
52103;DHT22;38101;53.126;6.878;2023-08-08T13:42:46;20.20;99.90
52103;DHT22;38101;53.126;6.878;2023-08-08T13:45:14;20.30;99.90
52103;DHT22;38101;53.126;6.878;2023-08-08T13:47:40;20.50;99.90
52103;DHT22;38101;53.126;6.878;2023-08-08T13:50:06;20.60;99.90
52103;DHT22;38101;53.126;6.878;2023-08-08T13:52:33;20.60;99.30
52103;DHT22;38101;53.126;6.878;2023-08-08T13:54:59;20.40;99.80
52103;DHT22;38101;53.126;6.878;2023-08-08T13:57:25;20.40;99.90
52103;DHT22;38101;53.126;6.878;2023-08-08T13:59:51;20.60;99.90
52103;DHT22;38101;53.126;6.878;2023-08-08T14:02:16;20.50;99.90
52103;DHT22;38101;53.126;6.878;2023-08-08T14:04:44;20.40;99.80
52103;DHT22;38101;53.126;6.878;2023-08-08T14:07:10;20.20;99.20
52103;DHT22;38101;53.126;6.878;2023-08-08T14:09:36;20.00;98.70
52103;DHT22;38101;53.126;6.878;2023-08-08T14:12:01;19.80;99.80
52103;DHT22;38101;53.126;6.878;2023-08-08T14:14:27;19.40;99.90
52103;DHT22;38101;53.126;6.878;2023-08-08T14:16:53;19.30;99.90
52103;DHT22;38101;53.126;6.878;2023-08-08T14:19:19;19.10;99.90
52103;DHT22;38101;53.126;6.878;2023-08-08T14:21:44;19.20;99.90
52103;DHT22;38101;53.126;6.878;2023-08-08T14:24:10;19.30;99.90
52103;DHT22;38101;53.126;6.878;2023-08-08T14:26:37;19.40;99.90
52103;DHT22;38101;53.126;6.878;2023-08-08T14:29:03;19.30;99.90
52103;DHT22;38101;53.126;6.878;2023-08-08T14:31:28;19.40;99.90
52103;DHT22;38101;53.126;6.878;2023-08-08T14:33:54;19.70;99.90
52103;DHT22;38101;53.126;6.878;2023-08-08T14:36:20;19.70;99.30
52103;DHT22;38101;53.126;6.878;2023-08-08T14:38:46;19.30;99.90
52103;DHT22;38101;53.126;6.878;2023-08-08T14:41:11;19.10;99.90
52103;DHT22;38101;53.126;6.878;2023-08-08T14:43:37;18.90;99.90
52103;DHT22;38101;53.126;6.878;2023-08-08T14:46:03;19.00;99.90
52103;DHT22;38101;53.126;6.878;2023-08-08T14:48:28;19.00;99.90
52103;DHT22;38101;53.126;6.878;2023-08-08T14:50:54;19.30;99.40
52103;DHT22;38101;53.126;6.878;2023-08-08T14:53:20;19.20;99.90
52103;DHT22;38101;53.126;6.878;2023-08-08T14:55:46;19.40;99.90
52103;DHT22;38101;53.126;6.878;2023-08-08T14:58:13;19.60;99.90
52103;DHT22;38101;53.126;6.878;2023-08-08T15:00:40;19.60;99.70
52103;DHT22;38101;53.126;6.878;2023-08-08T15:03:06;19.50;99.30
52103;DHT22;38101;53.126;6.878;2023-08-08T15:05:31;19.20;99.40
52103;DHT22;38101;53.126;6.878;2023-08-08T15:07:57;19.10;99.50
52103;DHT22;38101;53.126;6.878;2023-08-08T15:10:23;18.90;99.90
52103;DHT22;38101;53.126;6.878;2023-08-08T15:12:49;18.80;99.80
52103;DHT22;38101;53.126;6.878;2023-08-08T15:15:14;18.70;99.90
52103;DHT22;38101;53.126;6.878;2023-08-08T15:17:42;18.70;99.90
52103;DHT22;38101;53.126;6.878;2023-08-08T15:20:09;18.50;99.90
52103;DHT22;38101;53.126;6.878;2023-08-08T15:22:36;18.30;99.90
52103;DHT22;38101;53.126;6.878;2023-08-08T15:25:02;18.30;99.90